Temp: 4.7°C   Baro: 1017.2mb
  Wind: 0.0mph   Dir: NNW (342°)
  Rain: 0.0mm (0.0mm/hr)
  Solar: 0W/m2  Hum: 83%

Historic data

Bath Spa Weather Station Historical Data
Daily Summary for August 25, 2021 Units:  Metric    English   Both
Daily Weekly Monthly Yearly Custom
  High: Low: Average:
Temperature: 7.5 °C 1.3 °C 4.6 °C
Dew Point: 5.3 °C -0.1 °C 2.3 °C
Humidity: 90% 70.6% 82%
Wind Speed: 16.1km/h 0km/h 4km/h
Wind Gust: 24.1km/h - -
Wind- - SSW
Pressure: 1020.5 hPa 1013.4 hPa -
Precipitation: 0 mm    
Historical Graphs
 
 
Tabular Data for August 25, 2021
Time Temperature Dew Point Pressure Wind Wind Speed Wind Gust Humidity Rainfall Rate (Hourly) solar
00:04 6.3 °C 5.3 °C 1017.2 hPa North 7.1 km/h 12.9 km/h 90% 0 mm 0 W/m2
00:09 6.3 °C 5.3 °C 1017.2 hPa North 6.4 km/h 14.5 km/h 90% 0 mm 0 W/m2
00:19 6.3 °C 5.3 °C 1017.2 hPa North 7.7 km/h 17.7 km/h 90% 0 mm 0 W/m2
00:24 6.3 °C 5.3 °C 1017.2 hPa North 8.7 km/h 20.9 km/h 90% 0 mm 0 W/m2
00:29 6.3 °C 5.2 °C 1017.2 hPa North 5.6 km/h 16.1 km/h 89.4% 0 mm 0 W/m2
00:34 6.2 °C 5 °C 1017.2 hPa North 6.1 km/h 14.5 km/h 89% 0 mm 0 W/m2
00:39 6.2 °C 5 °C 1017.2 hPa North 9.3 km/h 17.7 km/h 89% 0 mm 0 W/m2
00:44 6.2 °C 4.9 °C 1017.2 hPa North 8.7 km/h 17.7 km/h 88.6% 0 mm 0 W/m2
00:49 6.2 °C 4.9 °C 1017.2 hPa North 8.7 km/h 14.5 km/h 88% 0 mm 0 W/m2
00:54 6.2 °C 4.9 °C 1017.2 hPa North 5 km/h 14.5 km/h 88% 0 mm 0 W/m2
00:59 6.1 °C 4.8 °C 1017.2 hPa North 3.5 km/h 9.7 km/h 88% 0 mm 0 W/m2
01:04 6.1 °C 4.8 °C 1016.8 hPa North 3.4 km/h 11.3 km/h 88% 0 mm 0 W/m2
01:09 6.1 °C 4.8 °C 1016.8 hPa North 6.4 km/h 14.5 km/h 88% 0 mm 0 W/m2
01:14 6.1 °C 4.7 °C 1017.2 hPa NNE 9 km/h 14.5 km/h 87.2% 0 mm 0 W/m2
01:19 6.1 °C 4.6 °C 1016.8 hPa NNE 8.5 km/h 16.1 km/h 87% 0 mm 0 W/m2
01:24 6.1 °C 4.5 °C 1017.2 hPa NNE 7.1 km/h 16.1 km/h 86.4% 0 mm 0 W/m2
01:29 6.1 °C 4.3 °C 1017.2 hPa NNE 8 km/h 16.1 km/h 86% 0 mm 0 W/m2
01:32 6.1 °C 4.3 °C 1017.2 hPa North 7.4 km/h 16.1 km/h 86% 0 mm 0 W/m2
01:39 6 °C 4.3 °C 1016.8 hPa North 7.7 km/h 16.1 km/h 85.8% 0 mm 0 W/m2
01:44 6 °C 4.2 °C 1017.2 hPa North 6.8 km/h 17.7 km/h 85.3% 0 mm 0 W/m2
01:49 6 °C 4.2 °C 1017.2 hPa North 10.3 km/h 20.9 km/h 85% 0 mm 0 W/m2
01:54 6 °C 4.2 °C 1017.2 hPa North 7.7 km/h 20.9 km/h 85% 0 mm 0 W/m2
01:59 5.9 °C 4.1 °C 1017.2 hPa NNE 7.4 km/h 16.1 km/h 85% 0 mm 0 W/m2
02:04 5.8 °C 4.1 °C 1017.2 hPa North 9.2 km/h 19.3 km/h 85% 0 mm 0 W/m2
02:09 5.8 °C 4 °C 1017.2 hPa North 6.6 km/h 19.3 km/h 85% 0 mm 0 W/m2
02:14 5.8 °C 4 °C 1017.2 hPa North 8.7 km/h 17.7 km/h 85% 0 mm 0 W/m2
02:19 5.8 °C 4 °C 1017.5 hPa North 8.5 km/h 14.5 km/h 85% 0 mm 0 W/m2
02:24 5.8 °C 4 °C 1017.5 hPa North 10.3 km/h 19.3 km/h 85% 0 mm 0 W/m2
02:29 5.8 °C 4 °C 1017.5 hPa North 8 km/h 19.3 km/h 85% 0 mm 0 W/m2
02:34 5.8 °C 4.1 °C 1017.5 hPa North 8.9 km/h 17.7 km/h 85% 0 mm 0 W/m2
02:39 5.9 °C 3.9 °C 1017.5 hPa NNW 7.1 km/h 19.3 km/h 84.2% 0 mm 0 W/m2
02:44 5.9 °C 3.9 °C 1017.5 hPa North 6.4 km/h 19.3 km/h 84% 0 mm 0 W/m2
02:49 5.9 °C 3.9 °C 1017.5 hPa North 6 km/h 16.1 km/h 84% 0 mm 0 W/m2
02:54 5.8 °C 3.8 °C 1017.5 hPa North 7.1 km/h 9.7 km/h 84% 0 mm 0 W/m2
02:59 5.8 °C 3.8 °C 1017.5 hPa North 6 km/h 12.9 km/h 84% 0 mm 0 W/m2
03:04 5.8 °C 3.8 °C 1017.5 hPa North 3.9 km/h 9.7 km/h 84% 0 mm 0 W/m2
03:09 5.8 °C 3.8 °C 1017.5 hPa North 4.3 km/h 11.3 km/h 84% 0 mm 0 W/m2
03:14 5.8 °C 3.8 °C 1017.5 hPa North 4 km/h 11.3 km/h 84% 0 mm 0 W/m2
03:19 5.8 °C 3.8 °C 1017.5 hPa North 6.4 km/h 14.5 km/h 84% 0 mm 0 W/m2
03:24 5.8 °C 3.8 °C 1017.5 hPa NNW 5.8 km/h 14.5 km/h 84% 0 mm 0 W/m2
03:29 5.8 °C 3.6 °C 1017.5 hPa NNW 4 km/h 8 km/h 83% 0 mm 0 W/m2
03:34 5.8 °C 3.6 °C 1017.5 hPa NNW 6.4 km/h 14.5 km/h 83% 0 mm 0 W/m2
03:39 5.8 °C 3.6 °C 1017.5 hPa NNW 5.1 km/h 11.3 km/h 83% 0 mm 0 W/m2
03:44 5.8 °C 3.6 °C 1017.5 hPa NNW 4.3 km/h 11.3 km/h 83% 0 mm 0 W/m2
03:49 5.8 °C 3.6 °C 1017.5 hPa NNW 5 km/h 8 km/h 83% 0 mm 0 W/m2
03:54 5.8 °C 3.6 °C 1017.5 hPa NNW 5 km/h 9.7 km/h 83% 0 mm 0 W/m2
03:59 5.8 °C 3.6 °C 1017.5 hPa NNW 6 km/h 14.5 km/h 83% 0 mm 0 W/m2
04:04 5.8 °C 3.6 °C 1017.5 hPa NNW 9.7 km/h 16.1 km/h 83% 0 mm 0 W/m2
04:09 5.7 °C 3.6 °C 1017.5 hPa NNW 5.5 km/h 16.1 km/h 83% 0 mm 0 W/m2
04:14 5.7 °C 3.5 °C 1017.5 hPa NNW 4.7 km/h 11.3 km/h 83% 0 mm 0 W/m2
04:19 5.7 °C 3.5 °C 1017.8 hPa NNW 5.3 km/h 12.9 km/h 83% 0 mm 0 W/m2
04:24 5.6 °C 3.4 °C 1017.8 hPa NNW 4.7 km/h 11.3 km/h 83% 0 mm 0 W/m2
04:29 5.5 °C 3.4 °C 1017.8 hPa NNW 6.8 km/h 12.9 km/h 83.4% 0 mm 0 W/m2
04:34 5.4 °C 3.4 °C 1017.8 hPa NNW 5.8 km/h 14.5 km/h 83.8% 0 mm 0 W/m2
04:39 5.4 °C 3.4 °C 1017.8 hPa NNW 7.2 km/h 11.3 km/h 84% 0 mm 0 W/m2
04:44 5.3 °C 3.3 °C 1017.8 hPa NNW 7.9 km/h 12.9 km/h 84% 0 mm 0 W/m2
04:49 5.2 °C 3.2 °C 1017.8 hPa NNW 4.8 km/h 9.7 km/h 84% 0 mm 0 W/m2
04:54 5.2 °C 3.2 °C 1017.8 hPa NNW 6.6 km/h 11.3 km/h 84% 0 mm 0 W/m2
04:59 5.1 °C 3.1 °C 1017.8 hPa NNW 7.1 km/h 12.9 km/h 84% 0 mm 0 W/m2
05:04 5.1 °C 3.1 °C 1017.8 hPa North 6.4 km/h 14.5 km/h 84% 0 mm 0 W/m2
05:09 5 °C 3 °C 1017.8 hPa North 9.3 km/h 16.1 km/h 84% 0 mm 0 W/m2
05:14 4.9 °C 2.9 °C 1017.8 hPa North 6.6 km/h 12.9 km/h 84% 0 mm 0 W/m2
05:19 4.9 °C 2.9 °C 1017.8 hPa North 6.4 km/h 12.9 km/h 84% 0 mm 0 W/m2
05:24 4.7 °C 2.7 °C 1018.2 hPa North 5.8 km/h 12.9 km/h 84% 0 mm 0 W/m2
05:29 4.7 °C 2.7 °C 1017.8 hPa North 3.9 km/h 11.3 km/h 84% 0 mm 0 W/m2
05:34 4.7 °C 2.7 °C 1017.8 hPa North 3.9 km/h 12.9 km/h 84% 0 mm 0 W/m2
05:39 4.6 °C 2.7 °C 1017.8 hPa NNW 2.7 km/h 16.1 km/h 85% 0 mm 0 W/m2
05:44 4.4 °C 2.6 °C 1017.8 hPa NNW 4.2 km/h 11.3 km/h 85% 0 mm 0 W/m2
05:49 4.4 °C 2.6 °C 1017.8 hPa NNW 3.2 km/h 8 km/h 85% 0 mm 0 W/m2
05:54 4.3 °C 2.5 °C 1017.8 hPa NNW 2.6 km/h 9.7 km/h 85% 0 mm 0 W/m2
05:59 4.2 °C 2.4 °C 1018.2 hPa NNW 3.2 km/h 6.4 km/h 85% 0 mm 0 W/m2
06:04 4.2 °C 2.3 °C 1018.2 hPa NNW 3.5 km/h 6.4 km/h 85% 0 mm 0 W/m2
06:09 4.1 °C 2.4 °C 1018.2 hPa NNW 3.9 km/h 9.7 km/h 85.6% 0 mm 0 W/m2
06:14 4.1 °C 2.5 °C 1018.2 hPa NNW 1.9 km/h 8 km/h 86% 0 mm 0 W/m2
06:19 4 °C 2.4 °C 1018.2 hPa NNW 1 km/h 6.4 km/h 86% 0 mm 0 W/m2
06:24 3.9 °C 2.3 °C 1018.5 hPa NNW 0.3 km/h 6.4 km/h 86% 0 mm 0 W/m2
06:29 3.9 °C 2.3 °C 1018.5 hPa NNW 1.9 km/h 4.8 km/h 86% 0 mm 0 W/m2
06:34 3.8 °C 2.2 °C 1018.5 hPa NNW 2.9 km/h 6.4 km/h 86% 0 mm 0 W/m2
06:39 3.8 °C 2.2 °C 1018.5 hPa NNW 1.9 km/h 4.8 km/h 86% 0 mm 0 W/m2
06:44 3.7 °C 2.1 °C 1018.5 hPa NNW 0.6 km/h 8 km/h 86% 0 mm 0 W/m2
06:49 3.7 °C 2.1 °C 1018.5 hPa NNW 2.6 km/h 9.7 km/h 86% 0 mm 0 W/m2
06:54 3.7 °C 2.1 °C 1018.8 hPa NNW 1.6 km/h 8 km/h 86.2% 0 mm 0 W/m2
06:59 3.7 °C 2.2 °C 1018.8 hPa NNW 0.8 km/h 6.4 km/h 87% 0 mm 0 W/m2
07:04 3.7 °C 2.2 °C 1018.8 hPa Calm   1.6 km/h 87% 0 mm 0 W/m2
07:09 3.7 °C 2.2 °C 1018.8 hPa North 4.5 km/h 14.5 km/h 87% 0 mm 0 W/m2
07:14 3.7 °C 2.2 °C 1018.8 hPa North 3.2 km/h 14.5 km/h 87% 0 mm 0 W/m2
07:19 3.8 °C 2.3 °C 1018.8 hPa North 7.1 km/h 16.1 km/h 87% 0 mm 0 W/m2
07:24 3.8 °C 2.3 °C 1018.8 hPa NNE 9.3 km/h 17.7 km/h 87% 0 mm 0 W/m2
07:29 3.8 °C 2.3 °C 1018.8 hPa NNE 10.6 km/h 16.1 km/h 87% 0 mm 0 W/m2
07:34 3.7 °C 2.2 °C 1018.8 hPa North 6.4 km/h 14.5 km/h 87% 0 mm 0 W/m2
07:39 3.7 °C 2.2 °C 1018.8 hPa NNE 10 km/h 16.1 km/h 86.4% 0 mm 0 W/m2
07:44 3.7 °C 2.2 °C 1019.2 hPa NNE 9.3 km/h 20.9 km/h 87% 0 mm 0 W/m2
07:49 3.7 °C 2.2 °C 1019.2 hPa NNE 7.2 km/h 20.9 km/h 86.4% 0 mm 5 W/m2
07:54 3.8 °C 2.2 °C 1019.2 hPa North 6.9 km/h 19.3 km/h 86% 0 mm 7 W/m2
07:59 3.7 °C 2.1 °C 1019.5 hPa North 8.2 km/h 14.5 km/h 86% 0 mm 9 W/m2
08:04 3.7 °C 2.1 °C 1019.5 hPa North 7.1 km/h 16.1 km/h 86% 0 mm 11 W/m2
08:09 3.7 °C 2.1 °C 1019.5 hPa North 7.7 km/h 12.9 km/h 86% 0 mm 12 W/m2
08:13 3.7 °C 2.1 °C 1019.5 hPa North 7.2 km/h 9.7 km/h 86% 0 mm 14 W/m2
08:19 3.8 °C 2.2 °C 1019.5 hPa North 6.6 km/h 11.3 km/h 86% 0 mm 16 W/m2
08:24 3.9 °C 2.2 °C 1019.5 hPa North 5.1 km/h 11.3 km/h 85.8% 0 mm 18 W/m2
08:29 4.2 °C 2.4 °C 1019.9 hPa North 2.6 km/h 8 km/h 85.6% 0 mm 19 W/m2
08:34 4.2 °C 2.3 °C 1019.9 hPa North 2.9 km/h 8 km/h 85% 0 mm 19 W/m2
08:39 4.3 °C 2.5 °C 1019.9 hPa North 3.9 km/h 11.3 km/h 85% 0 mm 21 W/m2
08:44 4.2 °C 2.2 °C 1019.9 hPa North 4.5 km/h 12.9 km/h 84% 0 mm 23 W/m2
08:49 4.2 °C 2.2 °C 1019.9 hPa North 1.3 km/h 8 km/h 84% 0 mm 23 W/m2
08:54 4.2 °C 2.2 °C 1019.9 hPa North 5.3 km/h 14.5 km/h 84% 0 mm 25 W/m2
08:59 4.1 °C 2.1 °C 1019.9 hPa North 5.6 km/h 14.5 km/h 84% 0 mm 25 W/m2
09:04 4.2 °C 2.2 °C 1019.9 hPa North 2.6 km/h 9.7 km/h 84% 0 mm 26 W/m2
09:09 4.2 °C 2.2 °C 1020.2 hPa North 6.6 km/h 12.9 km/h 84% 0 mm 26 W/m2
09:14 4.2 °C 2.2 °C 1019.9 hPa NNE 8.5 km/h 16.1 km/h 83.8% 0 mm 30 W/m2
09:19 4.4 °C 2.3 °C 1019.9 hPa NNE 5.3 km/h 11.3 km/h 83.4% 0 mm 33 W/m2
09:24 4.6 °C 2.4 °C 1019.9 hPa NNE 5.8 km/h 11.3 km/h 82.8% 0 mm 40 W/m2
09:29 4.7 °C 2.3 °C 1019.9 hPa NNE 1.9 km/h 11.3 km/h 82.2% 0 mm 44 W/m2
09:34 4.9 °C 2.6 °C 1019.9 hPa NNE 3.7 km/h 8 km/h 82.2% 0 mm 53 W/m2
09:39 4.9 °C 2.6 °C 1019.9 hPa NNE 3.9 km/h 8 km/h 81.6% 0 mm 62 W/m2
09:44 5.3 °C 2.8 °C 1019.9 hPa NNE 2.4 km/h 9.7 km/h 81% 0 mm 72 W/m2
09:49 5.3 °C 2.7 °C 1019.9 hPa NNE 2.6 km/h 9.7 km/h 80.4% 0 mm 83 W/m2
09:54 5.2 °C 2.5 °C 1019.9 hPa NNE 3.2 km/h 11.3 km/h 80% 0 mm 93 W/m2
09:59 5.6 °C 2.8 °C 1019.9 hPa NNE 3.4 km/h 11.3 km/h 80% 0 mm 105 W/m2
10:04 5.5 °C 2.6 °C 1020.2 hPa NNE 4.5 km/h 9.7 km/h 79% 0 mm 114 W/m2
10:09 5.5 °C 2.7 °C 1020.2 hPa NNE 4.3 km/h 12.9 km/h 79.2% 0 mm 123 W/m2
10:14 5.4 °C 2.5 °C 1020.2 hPa North 6.8 km/h 12.9 km/h 78.8% 0 mm 132 W/m2
10:19 5.4 °C 2.6 °C 1020.5 hPa North 3.4 km/h 8 km/h 79.2% 0 mm 141 W/m2
10:24 5.5 °C 2.6 °C 1020.5 hPa North 10 km/h 16.1 km/h 78.8% 0 mm 149 W/m2
10:29 5.3 °C 2.5 °C 1020.5 hPa North 6.4 km/h 14.5 km/h 79.2% 0 mm 156 W/m2
10:34 5.4 °C 2.7 °C 1020.5 hPa North 7.1 km/h 14.5 km/h 79.8% 0 mm 163 W/m2
10:39 5.6 °C 2.7 °C 1020.5 hPa NNW 9.2 km/h 16.1 km/h 79% 0 mm 172 W/m2
10:44 5.5 °C 2.6 °C 1020.5 hPa NNW 7.7 km/h 14.5 km/h 79% 0 mm 178 W/m2
10:49 5.6 °C 2.7 °C 1020.5 hPa NNW 10.9 km/h 20.9 km/h 78.8% 0 mm 183 W/m2
10:54 5.7 °C 2.7 °C 1020.5 hPa North 9.7 km/h 17.7 km/h 78.4% 0 mm 190 W/m2
10:59 5.8 °C 2.7 °C 1020.5 hPa North 10 km/h 20.9 km/h 78% 0 mm 197 W/m2
11:04 5.7 °C 2.4 °C 1020.5 hPa North 9.3 km/h 20.9 km/h 77% 0 mm 202 W/m2
11:09 5.7 °C 2.6 °C 1020.5 hPa NNW 8.2 km/h 20.9 km/h 77.6% 0 mm 207 W/m2
11:14 5.8 °C 2.6 °C 1020.2 hPa North 10.3 km/h 20.9 km/h 77.2% 0 mm 209 W/m2
11:19 5.8 °C 2.7 °C 1020.2 hPa North 8.7 km/h 16.1 km/h 77% 0 mm 213 W/m2
11:24 6 °C 2.8 °C 1020.2 hPa North 8.4 km/h 17.7 km/h 77% 0 mm 218 W/m2
11:29 5.9 °C 2.7 °C 1020.2 hPa NNW 11.4 km/h 19.3 km/h 76.8% 0 mm 221 W/m2
11:34 6.2 °C 2.8 °C 1020.2 hPa NNW 8 km/h 14.5 km/h 76.2% 0 mm 223 W/m2
11:39 6.2 °C 2.8 °C 1020.2 hPa North 8.5 km/h 24.1 km/h 75.6% 0 mm 229 W/m2
11:44 6.2 °C 2.6 °C 1020.2 hPa North 9.7 km/h 22.5 km/h 75.2% 0 mm 230 W/m2
11:49 6.2 °C 2.7 °C 1020.2 hPa NNE 8.5 km/h 22.5 km/h 75.6% 0 mm 234 W/m2
11:54 6.7 °C 3.1 °C 1020.2 hPa NE 5.1 km/h 20.9 km/h 75.6% 0 mm 232 W/m2
11:58 6.9 °C 3.1 °C 1020.2 hPa NNE 8 km/h 17.7 km/h 74% 0 mm 236 W/m2
12:04 6.6 °C 2.9 °C 1020.2 hPa NW 3.9 km/h 14.5 km/h 74.8% 0 mm 236 W/m2
12:09 6.9 °C 3.2 °C 1019.9 hPa North 7.1 km/h 22.5 km/h 74.4% 0 mm 237 W/m2
12:14 6.4 °C 2.7 °C 1019.9 hPa NNE 11.9 km/h 20.9 km/h 74.2% 0 mm 241 W/m2
12:19 6.5 °C 2.9 °C 1019.9 hPa NNE 3.9 km/h 12.9 km/h 75% 0 mm 237 W/m2
12:24 6.8 °C 3.1 °C 1019.5 hPa NNE 2.3 km/h 9.7 km/h 74.4% 0 mm 239 W/m2
12:29 7 °C 3.1 °C 1019.9 hPa NNE 2.9 km/h 17.7 km/h 73.4% 0 mm 237 W/m2
12:34 7.3 °C 3.4 °C 1019.9 hPa NE 4.5 km/h 14.5 km/h 73.4% 0 mm 239 W/m2
12:39 7.5 °C 3.3 °C 1019.5 hPa NNE 6.8 km/h 20.9 km/h 72.2% 0 mm 237 W/m2
12:44 7.1 °C 2.9 °C 1019.5 hPa NNE 4.8 km/h 20.9 km/h 72.2% 0 mm 236 W/m2
12:49 7.1 °C 3.1 °C 1019.5 hPa NNW 3.9 km/h 14.5 km/h 73% 0 mm 234 W/m2
12:54 6.9 °C 2.9 °C 1019.5 hPa NNE 5.8 km/h 16.1 km/h 73% 0 mm 230 W/m2
12:59 7.1 °C 2.9 °C 1019.9 hPa North 9.2 km/h 14.5 km/h 72.4% 0 mm 227 W/m2
13:04 7.1 °C 2.9 °C 1019.9 hPa North 6.4 km/h 16.1 km/h 72% 0 mm 227 W/m2
13:09 7.2 °C 3 °C 1019.9 hPa North 4.3 km/h 12.9 km/h 72% 0 mm 223 W/m2
13:14 7.2 °C 2.8 °C 1019.5 hPa North 11.4 km/h 17.7 km/h 71.2% 0 mm 220 W/m2
13:19 7.1 °C 2.7 °C 1019.5 hPa North 11.9 km/h 20.9 km/h 71% 0 mm 218 W/m2
13:24 6.9 °C 2.5 °C 1019.5 hPa NNE 16.1 km/h 22.5 km/h 71% 0 mm 213 W/m2
13:29 6.8 °C 2.4 °C 1019.5 hPa NNW 10 km/h 20.9 km/h 71% 0 mm 211 W/m2
13:34 6.8 °C 2.3 °C 1019.5 hPa North 15.1 km/h 22.5 km/h 70.8% 0 mm 209 W/m2
13:39 6.8 °C 2.4 °C 1019.5 hPa North 10.3 km/h 17.7 km/h 70.8% 0 mm 207 W/m2
13:44 7.1 °C 2.6 °C 1019.5 hPa North 4.8 km/h 17.7 km/h 70.6% 0 mm 200 W/m2
13:49 7 °C 2.6 °C 1019.5 hPa North 10 km/h 17.7 km/h 70.8% 0 mm 204 W/m2
13:54 7 °C 2.6 °C 1019.5 hPa NNW 8.4 km/h 14.5 km/h 71% 0 mm 202 W/m2
13:59 7 °C 2.6 °C 1019.5 hPa North 8.4 km/h 17.7 km/h 71% 0 mm 178 W/m2
14:04 6.9 °C 2.4 °C 1019.2 hPa North 3.4 km/h 17.7 km/h 70.6% 0 mm 165 W/m2
14:09 6.9 °C 2.6 °C 1019.2 hPa NNW 8.5 km/h 14.5 km/h 71% 0 mm 149 W/m2
14:14 6.8 °C 2.4 °C 1019.2 hPa North 8.9 km/h 16.1 km/h 71% 0 mm 130 W/m2
14:19 6.7 °C 2.3 °C 1019.2 hPa North 7.1 km/h 17.7 km/h 71% 0 mm 132 W/m2
14:24 6.8 °C 2.6 °C 1019.2 hPa NNE 7.1 km/h 17.7 km/h 72% 0 mm 113 W/m2
14:29 6.7 °C 2.4 °C 1019.2 hPa NNE 5.3 km/h 17.7 km/h 71.6% 0 mm 107 W/m2
14:34 6.6 °C 2.4 °C 1019.2 hPa North 6.3 km/h 14.5 km/h 72% 0 mm 105 W/m2
14:39 6.6 °C 2.4 °C 1019.2 hPa North 2.6 km/h 14.5 km/h 72% 0 mm 98 W/m2
14:44 6.7 °C 2.4 °C 1018.8 hPa North 1 km/h 8 km/h 72% 0 mm 107 W/m2
14:49 6.7 °C 2.5 °C 1019.2 hPa NNW 1.9 km/h 11.3 km/h 72% 0 mm 105 W/m2
14:54 6.6 °C 2.4 °C 1019.2 hPa North 0.6 km/h 9.7 km/h 72% 0 mm 97 W/m2
14:59 6.6 °C 2.4 °C 1019.2 hPa North 6.1 km/h 11.3 km/h 72% 0 mm 95 W/m2
15:04 6.6 °C 2.3 °C 1019.2 hPa North 1.6 km/h 9.7 km/h 72% 0 mm 81 W/m2
15:09 6.4 °C 2.4 °C 1019.2 hPa North 3.5 km/h 11.3 km/h 73% 0 mm 63 W/m2
15:14 6.3 °C 2.3 °C 1019.2 hPa North 1.9 km/h 9.7 km/h 73% 0 mm 58 W/m2
15:19 6.3 °C 2.3 °C 1019.2 hPa North 1.3 km/h 6.4 km/h 73% 0 mm 47 W/m2
15:24 6.3 °C 2.4 °C 1019.2 hPa North 4.8 km/h 12.9 km/h 73.8% 0 mm 44 W/m2
15:29 6.2 °C 2.3 °C 1019.2 hPa NNW 0.3 km/h 11.3 km/h 74% 0 mm 39 W/m2
15:34 6.1 °C 2.3 °C 1019.2 hPa NNW 0.3 km/h 6.4 km/h 74% 0 mm 30 W/m2
15:39 6 °C 2.3 °C 1019.2 hPa NNW 0.3 km/h 6.4 km/h 74.2% 0 mm 25 W/m2
15:44 5.9 °C 2.3 °C 1019.2 hPa Calm   3.2 km/h 75% 0 mm 21 W/m2
15:49 5.8 °C 2.2 °C 1019.2 hPa Calm   3.2 km/h 75% 0 mm 18 W/m2
15:54 5.8 °C 2.2 °C 1019.2 hPa Calm     75% 0 mm 14 W/m2
15:59 5.8 °C 2.2 °C 1019.2 hPa Calm     75% 0 mm 11 W/m2
16:04 5.7 °C 2.1 °C 1019.2 hPa Calm     75.2% 0 mm 9 W/m2
16:08 5.5 °C 2.1 °C 1019.2 hPa Calm     75.8% 0 mm 5 W/m2
16:14 5.3 °C 1.9 °C 1019.2 hPa Calm     76% 0 mm 5 W/m2
16:19 5.3 °C 1.9 °C 1019.2 hPa Calm     76.2% 0 mm 0 W/m2
16:24 5.2 °C 2 °C 1019.5 hPa Calm     77% 0 mm 0 W/m2
16:29 4.8 °C 1.7 °C 1019.5 hPa Calm     77.2% 0 mm 0 W/m2
16:34 4.6 °C 1.5 °C 1019.2 hPa Calm     77.6% 0 mm 0 W/m2
16:39 4.3 °C 1.3 °C 1019.2 hPa Calm     78% 0 mm 0 W/m2
16:44 4.1 °C 1.3 °C 1019.2 hPa Calm     79% 0 mm 0 W/m2
16:49 4 °C 1.2 °C 1019.2 hPa Calm     79% 0 mm 0 W/m2
16:54 3.9 °C 1.2 °C 1019.2 hPa Calm     79.6% 0 mm 0 W/m2
16:59 3.8 °C 1.2 °C 1019.2 hPa Calm     80% 0 mm 0 W/m2
17:04 3.6 °C 0.9 °C 1019.2 hPa Calm     80% 0 mm 0 W/m2
17:09 3.4 °C 0.9 °C 1019.2 hPa Calm     81% 0 mm 0 W/m2
17:14 3.3 °C 0.8 °C 1019.2 hPa Calm     81% 0 mm 0 W/m2
17:19 3.2 °C 0.8 °C 1019.2 hPa Calm     81.4% 0 mm 0 W/m2
17:24 3.1 °C 0.7 °C 1019.2 hPa Calm     81.8% 0 mm 0 W/m2
17:29 2.9 °C 0.6 °C 1019.2 hPa Calm     82% 0 mm 0 W/m2
17:34 2.9 °C 0.7 °C 1019.2 hPa Calm     82.8% 0 mm 0 W/m2
17:39 2.8 °C 0.7 °C 1019.2 hPa Calm     83% 0 mm 0 W/m2
17:44 2.8 °C 0.7 °C 1019.2 hPa Calm     83% 0 mm 0 W/m2
17:49 2.7 °C 0.7 °C 1018.8 hPa Calm     83.6% 0 mm 0 W/m2
17:54 2.7 °C 0.7 °C 1018.8 hPa Calm     84% 0 mm 0 W/m2
17:59 2.6 °C 0.7 °C 1019.2 hPa Calm     84% 0 mm 0 W/m2
18:04 2.5 °C 0.6 °C 1019.2 hPa Calm     84.2% 0 mm 0 W/m2
18:09 2.5 °C 0.7 °C 1019.2 hPa Calm     85% 0 mm 0 W/m2
18:14 2.3 °C 0.6 °C 1019.2 hPa Calm     85% 0 mm 0 W/m2
18:19 2.3 °C 0.5 °C 1018.8 hPa Calm     85% 0 mm 0 W/m2
18:24 2.3 °C 0.5 °C 1018.8 hPa Calm     85% 0 mm 0 W/m2
18:29 2.3 °C 0.4 °C 1018.8 hPa Calm     85% 0 mm 0 W/m2
18:34 2.2 °C 0.3 °C 1018.8 hPa Calm     85% 0 mm 0 W/m2
18:39 1.9 °C 0.2 °C 1018.8 hPa Calm     85.4% 0 mm 0 W/m2
18:44 1.8 °C 0.2 °C 1018.8 hPa Calm     86% 0 mm 0 W/m2
18:49 1.8 °C 0.2 °C 1018.5 hPa Calm     86% 0 mm 0 W/m2
18:54 1.8 °C 0.2 °C 1018.5 hPa Calm     86% 0 mm 0 W/m2
18:59 1.7 °C 0.1 °C 1018.5 hPa Calm     86% 0 mm 0 W/m2
19:04 1.7 °C 0.1 °C 1018.5 hPa Calm     86% 0 mm 0 W/m2
19:09 1.6 °C -0.1 °C 1018.5 hPa Calm     86% 0 mm 0 W/m2
19:14 1.4 °C -0.1 °C 1018.2 hPa Calm     86.6% 0 mm 0 W/m2
19:19 1.3 °C -0.1 °C 1018.2 hPa Calm     87% 0 mm 0 W/m2
19:24 1.3 °C -0.1 °C 1018.2 hPa Calm     87% 0 mm 0 W/m2
19:29 1.4 °C 0 °C 1018.2 hPa Calm     87% 0 mm 0 W/m2
19:34 1.5 °C 0.1 °C 1018.2 hPa Calm     87% 0 mm 0 W/m2
19:39 1.4 °C 0.1 °C 1018.2 hPa Calm     87% 0 mm 0 W/m2
19:44 1.4 °C 0 °C 1017.8 hPa Calm     87% 0 mm 0 W/m2
19:49 1.4 °C 0 °C 1017.8 hPa Calm     87% 0 mm 0 W/m2
19:54 1.4 °C 0.1 °C 1017.8 hPa Calm     87.8% 0 mm 0 W/m2
19:59 1.6 °C 0.3 °C 1017.8 hPa Calm     88% 0 mm 0 W/m2
20:04 1.7 °C 0.3 °C 1017.8 hPa Calm     88% 0 mm 0 W/m2
20:09 1.8 °C 0.4 °C 1017.8 hPa Calm     88% 0 mm 0 W/m2
20:14 1.8 °C 0.5 °C 1017.8 hPa Calm     88% 0 mm 0 W/m2
20:19 1.8 °C 0.5 °C 1017.8 hPa Calm     88% 0 mm 0 W/m2
20:24 1.8 °C 0.5 °C 1017.5 hPa Calm     88% 0 mm 0 W/m2
20:29 1.8 °C 0.5 °C 1017.5 hPa Calm     88% 0 mm 0 W/m2
20:34 1.8 °C 0.5 °C 1017.5 hPa Calm     88% 0 mm 0 W/m2
20:39 1.8 °C 0.4 °C 1017.5 hPa Calm     88% 0 mm 0 W/m2
20:44 1.7 °C 0.4 °C 1017.5 hPa Calm     88% 0 mm 0 W/m2
20:49 1.7 °C 0.4 °C 1017.5 hPa Calm     88% 0 mm 0 W/m2
20:54 1.8 °C 0.5 °C 1017.2 hPa Calm     88% 0 mm 0 W/m2
20:59 1.8 °C 0.5 °C 1017.2 hPa Calm     88% 0 mm 0 W/m2
21:04 1.8 °C 0.5 °C 1017.2 hPa Calm     88% 0 mm 0 W/m2
21:09 1.8 °C 0.5 °C 1017.2 hPa Calm     88% 0 mm 0 W/m2
21:14 1.8 °C 0.5 °C 1016.8 hPa Calm     88% 0 mm 0 W/m2
21:19 1.8 °C 0.5 °C 1016.8 hPa Calm     88% 0 mm 0 W/m2
21:24 1.8 °C 0.5 °C 1016.8 hPa Calm     88% 0 mm 0 W/m2
21:29 1.7 °C 0.4 °C 1016.8 hPa Calm     88% 0 mm 0 W/m2
21:34 1.7 °C 0.4 °C 1016.8 hPa Calm     88% 0 mm 0 W/m2
21:39 1.7 °C 0.4 °C 1016.8 hPa Calm     88% 0 mm 0 W/m2
21:44 1.7 °C 0.4 °C 1016.5 hPa Calm     88% 0 mm 0 W/m2
21:49 1.7 °C 0.4 °C 1016.5 hPa Calm     88% 0 mm 0 W/m2
21:54 1.8 °C 0.5 °C 1016.5 hPa Calm     88% 0 mm 0 W/m2
21:59 1.8 °C 0.5 °C 1016.1 hPa Calm     88% 0 mm 0 W/m2
22:04 1.8 °C 0.5 °C 1016.1 hPa Calm     88% 0 mm 0 W/m2
22:09 1.8 °C 0.6 °C 1016.1 hPa Calm     88% 0 mm 0 W/m2
22:14 2.1 °C 0.9 °C 1016.1 hPa NNW 4 km/h 8 km/h 88.8% 0 mm 0 W/m2
22:19 2.5 °C 1.3 °C 1015.8 hPa NNW 3.2 km/h 8 km/h 88.8% 0 mm 0 W/m2
22:24 2.7 °C 1.4 °C 1015.8 hPa NNW 2.4 km/h 6.4 km/h 88% 0 mm 0 W/m2
22:29 2.8 °C 1.5 °C 1015.8 hPa NNW 2.3 km/h 6.4 km/h 88% 0 mm 0 W/m2
22:34 2.9 °C 1.4 °C 1015.5 hPa NNW 1 km/h 4.8 km/h 87.2% 0 mm 0 W/m2
22:39 2.9 °C 1.4 °C 1015.5 hPa Calm     87% 0 mm 0 W/m2
22:44 2.9 °C 1.3 °C 1015.5 hPa Calm     86.6% 0 mm 0 W/m2
22:49 2.8 °C 1.2 °C 1015.1 hPa Calm     86% 0 mm 0 W/m2
22:53 2.8 °C 1.2 °C 1015.1 hPa Calm     86% 0 mm 0 W/m2
22:59 2.8 °C 1.2 °C 1015.1 hPa NNW 1.9 km/h 6.4 km/h 86% 0 mm 0 W/m2
23:04 3 °C 1.5 °C 1015.1 hPa NNW 5.3 km/h 11.3 km/h 86.6% 0 mm 0 W/m2
23:09 3.2 °C 1.6 °C 1014.8 hPa NNW 6.4 km/h 9.7 km/h 86% 0 mm 0 W/m2
23:14 3.3 °C 1.7 °C 1014.8 hPa NNW 5.1 km/h 9.7 km/h 86% 0 mm 0 W/m2
23:19 3.3 °C 1.7 °C 1014.8 hPa NNW 4.7 km/h 9.7 km/h 86% 0 mm 0 W/m2
23:24 3.2 °C 1.6 °C 1014.4 hPa NNW 3.2 km/h 8 km/h 86% 0 mm 0 W/m2
23:29 3.1 °C 1.5 °C 1014.4 hPa NNW 2.1 km/h 4.8 km/h 86% 0 mm 0 W/m2
23:34 3.1 °C 1.5 °C 1014.4 hPa Calm   3.2 km/h 86% 0 mm 0 W/m2
23:39 3.1 °C 1.5 °C 1014.1 hPa NNW 0.3 km/h 4.8 km/h 86% 0 mm 0 W/m2
23:44 3.2 °C 1.6 °C 1014.1 hPa NNW 1.3 km/h 4.8 km/h 86% 0 mm 0 W/m2
23:49 3.2 °C 1.6 °C 1014.1 hPa NNW 3.4 km/h 8 km/h 86% 0 mm 0 W/m2
23:54 3.3 °C 1.7 °C 1013.8 hPa NNW 4.5 km/h 9.7 km/h 86% 0 mm 0 W/m2
23:59 3.3 °C 1.8 °C 1013.4 hPa NNW 3.2 km/h 8 km/h 86.8% 0 mm 0 W/m2
Bath Spa Weather
Compliments of Weather Underground - 2 mb